createdAt,value
2018-04-25T00:01:35.693Z,16.40
2018-04-25T00:04:02.051Z,16.30
2018-04-25T00:06:29.103Z,16.00
2018-04-25T00:08:56.118Z,15.70
2018-04-25T00:11:22.455Z,15.90
2018-04-25T00:13:48.777Z,15.70
2018-04-25T00:16:15.090Z,15.70
2018-04-25T00:18:41.406Z,15.80
2018-04-25T00:21:07.692Z,15.90
2018-04-25T00:23:34.127Z,15.80
2018-04-25T00:26:01.179Z,15.20
2018-04-25T00:28:27.669Z,15.70
2018-04-25T00:30:54.004Z,15.20
2018-04-25T00:33:20.294Z,15.50
2018-04-25T00:35:47.290Z,15.20
2018-04-25T00:38:13.592Z,15.30
2018-04-25T00:40:39.868Z,15.30
2018-04-25T00:43:06.173Z,15.20
2018-04-25T00:45:32.521Z,15.50
2018-04-25T00:47:58.853Z,15.20
2018-04-25T00:50:25.142Z,15.40
2018-04-25T00:52:51.490Z,15.20
2018-04-25T00:55:17.827Z,15.30
2018-04-25T00:57:44.119Z,15.20
2018-04-25T01:00:10.463Z,15.30
2018-04-25T01:02:36.816Z,15.70
2018-04-25T01:05:03.113Z,15.20
2018-04-25T01:07:29.451Z,15.10
2018-04-25T01:09:55.759Z,15.40
2018-04-25T01:12:22.861Z,15.10
2018-04-25T01:14:49.146Z,15.10
2018-04-25T01:17:15.457Z,15.10
2018-04-25T01:19:41.740Z,15.30
2018-04-25T01:22:08.797Z,15.20
2018-04-25T01:24:35.074Z,15.10
2018-04-25T01:27:03.400Z,15.10
2018-04-25T01:29:29.686Z,15.30
2018-04-25T01:31:57.541Z,15.40
2018-04-25T01:37:34.046Z,15.00
2018-04-25T01:40:03.071Z,15.20
2018-04-25T01:42:37.420Z,15.10
2018-04-25T01:45:04.506Z,15.10
2018-04-25T01:47:33.566Z,15.00
2018-04-25T01:53:19.353Z,15.10
2018-04-25T01:55:57.926Z,15.10
2018-04-25T01:58:37.277Z,15.10
2018-04-25T02:01:15.975Z,14.90
2018-04-25T02:03:58.930Z,15.00
2018-04-25T02:06:25.197Z,15.20
2018-04-25T02:08:51.562Z,15.30
2018-04-25T02:11:17.827Z,15.20
2018-04-25T02:13:44.137Z,15.30
2018-04-25T02:16:10.455Z,15.30
2018-04-25T02:18:37.461Z,15.20
2018-04-25T02:21:03.765Z,15.10
2018-04-25T02:23:30.026Z,15.70
2018-04-25T02:25:56.318Z,15.10
2018-04-25T02:28:22.642Z,15.20
2018-04-25T02:30:48.920Z,15.70
2018-04-25T02:33:15.225Z,15.20
2018-04-25T02:35:41.482Z,15.20
2018-04-25T02:38:07.767Z,15.30
2018-04-25T02:40:34.031Z,15.70
2018-04-25T02:43:00.327Z,15.70
2018-04-25T02:45:26.593Z,15.20
2018-04-25T02:47:52.873Z,15.50
2018-04-25T02:50:19.862Z,15.40
2018-04-25T02:52:46.134Z,15.70
2018-04-25T02:55:12.418Z,15.60
2018-04-25T02:57:39.423Z,15.40
2018-04-25T03:00:05.694Z,15.10
2018-04-25T03:02:31.993Z,15.80
2018-04-25T03:04:58.249Z,15.70
2018-04-25T03:07:24.520Z,15.60
2018-04-25T03:09:51.542Z,15.50
2018-04-25T03:12:17.807Z,15.20
2018-04-25T03:14:44.829Z,15.50
2018-04-25T03:17:11.090Z,15.50
2018-04-25T03:19:38.112Z,15.50
2018-04-25T03:22:04.366Z,15.30
2018-04-25T03:24:31.392Z,15.50
2018-04-25T03:26:57.667Z,15.50
2018-04-25T03:29:23.921Z,15.50
2018-04-25T03:31:50.201Z,15.70
2018-04-25T03:34:17.190Z,15.60
2018-04-25T03:36:43.500Z,15.70
2018-04-25T03:39:09.718Z,15.60
2018-04-25T03:41:35.989Z,15.60
2018-04-25T03:44:02.301Z,15.80
2018-04-25T03:46:28.602Z,15.60
2018-04-25T03:48:54.860Z,15.90
2018-04-25T03:51:21.113Z,15.80
2018-04-25T03:53:47.389Z,15.70
2018-04-25T03:56:14.379Z,15.50
2018-04-25T03:58:40.653Z,15.70
2018-04-25T04:01:07.670Z,15.80
2018-04-25T04:03:33.934Z,15.50
2018-04-25T04:06:00.949Z,15.60
2018-04-25T04:08:27.193Z,15.70
2018-04-25T04:10:53.473Z,16.10
2018-04-25T04:13:19.725Z,15.80
2018-04-25T04:15:46.033Z,15.60
2018-04-25T04:18:12.301Z,15.70
2018-04-25T04:20:38.549Z,16.20
2018-04-25T04:23:05.553Z,15.60
2018-04-25T04:25:31.819Z,15.80
2018-04-25T04:27:58.113Z,15.70
2018-04-25T04:30:24.393Z,15.80
2018-04-25T04:32:51.409Z,15.80
2018-04-25T04:35:17.691Z,15.60
2018-04-25T04:37:44.677Z,15.50
2018-04-25T04:40:10.949Z,15.80
2018-04-25T04:42:37.938Z,16.10
2018-04-25T04:45:04.213Z,15.70
2018-04-25T04:47:30.482Z,15.80
2018-04-25T04:49:56.753Z,15.80
2018-04-25T04:52:23.082Z,15.90
2018-04-25T04:54:49.348Z,16.10
2018-04-25T04:57:16.381Z,15.60
2018-04-25T04:59:42.730Z,15.70
2018-04-25T05:02:08.925Z,15.60
2018-04-25T05:04:35.182Z,15.70
2018-04-25T05:07:02.201Z,15.60
2018-04-25T05:09:28.481Z,15.50
2018-04-25T05:11:54.753Z,15.90
2018-04-25T05:14:21.046Z,15.70
2018-04-25T05:16:48.301Z,15.90
2018-04-25T05:19:14.586Z,15.90
2018-04-25T05:21:40.850Z,15.70
2018-04-25T05:24:07.139Z,15.70
2018-04-25T05:26:33.403Z,15.70
2018-04-25T05:28:59.678Z,15.60
2018-04-25T05:31:25.949Z,15.60
2018-04-25T05:33:53.011Z,15.70
2018-04-25T05:36:19.288Z,15.60
2018-04-25T05:38:45.591Z,15.50
2018-04-25T05:41:12.602Z,15.50
2018-04-25T05:43:39.601Z,15.20
2018-04-25T05:46:05.917Z,15.70
2018-04-25T05:48:32.161Z,15.30
2018-04-25T05:50:58.461Z,15.50
2018-04-25T05:53:24.776Z,15.60
2018-04-25T05:55:51.037Z,15.10
2018-04-25T05:58:17.319Z,15.70
2018-04-25T06:00:43.677Z,15.60
2018-04-25T06:03:10.013Z,15.40
2018-04-25T06:05:36.258Z,15.10
2018-04-25T06:08:02.551Z,15.10
2018-04-25T06:10:29.583Z,15.00
2018-04-25T06:12:55.850Z,15.00
2018-04-25T06:15:22.133Z,15.00
2018-04-25T06:17:48.414Z,15.00
2018-04-25T06:20:14.794Z,15.00
2018-04-25T06:22:41.766Z,15.00
2018-04-25T06:25:08.787Z,15.60
2018-04-25T06:27:35.058Z,15.00
2018-04-25T06:30:01.446Z,15.00
2018-04-25T06:32:27.729Z,14.70
2018-04-25T06:34:54.005Z,14.90
2018-04-25T06:37:20.329Z,15.10
2018-04-25T06:39:46.609Z,15.10
2018-04-25T06:42:12.906Z,14.60
2018-04-25T06:44:39.198Z,14.60
2018-04-25T06:47:05.495Z,14.40
2018-04-25T06:49:31.821Z,14.70
2018-04-25T06:51:58.813Z,14.40
2018-04-25T06:54:25.119Z,14.60
2018-04-25T06:56:51.452Z,14.20
2018-04-25T06:59:17.650Z,14.10
2018-04-25T07:01:43.937Z,14.10
2018-04-25T07:04:10.258Z,14.10
2018-04-25T07:06:36.551Z,14.00
2018-04-25T07:09:02.909Z,14.10
2018-04-25T07:11:29.201Z,14.10
2018-04-25T07:13:56.201Z,14.50
2018-04-25T07:16:22.518Z,14.50
2018-04-25T07:18:48.834Z,14.20
2018-04-25T07:21:15.109Z,14.10
2018-04-25T07:23:41.394Z,14.10
2018-04-25T07:26:07.706Z,14.40
2018-04-25T07:28:34.006Z,14.40
2018-04-25T07:31:00.273Z,14.60
2018-04-25T07:33:26.534Z,14.40
2018-04-25T07:35:52.827Z,14.50
2018-04-25T07:38:19.090Z,14.70
2018-04-25T07:40:45.398Z,15.00
2018-04-25T07:43:11.721Z,15.10
2018-04-25T07:45:37.986Z,15.00
2018-04-25T07:48:04.322Z,15.00
2018-04-25T07:50:30.602Z,15.20
2018-04-25T07:52:57.660Z,15.20
2018-04-25T07:55:23.932Z,15.20
2018-04-25T07:57:50.292Z,15.70
2018-04-25T08:00:16.531Z,15.70
2018-04-25T08:02:43.546Z,16.10
2018-04-25T08:05:09.866Z,16.50
2018-04-25T08:07:36.118Z,16.60
2018-04-25T08:10:02.406Z,16.60
2018-04-25T08:12:40.862Z,16.50
2018-04-25T08:15:19.399Z,16.50
2018-04-25T08:17:58.330Z,16.20
2018-04-25T08:20:36.778Z,16.10
2018-04-25T08:23:03.082Z,16.10
2018-04-25T08:25:29.321Z,16.50
2018-04-25T08:27:55.642Z,16.50
2018-04-25T08:30:22.667Z,16.90
2018-04-25T08:32:48.951Z,16.50
2018-04-25T08:35:15.222Z,16.80
2018-04-25T08:37:41.506Z,16.40
2018-04-25T08:40:07.825Z,16.30
2018-04-25T08:42:34.843Z,16.10
2018-04-25T08:45:01.209Z,16.20
2018-04-25T08:47:27.390Z,16.60
2018-04-25T08:49:53.655Z,16.70
2018-04-25T08:52:20.681Z,17.80
2018-04-25T08:54:46.926Z,17.40
2018-04-25T08:57:13.950Z,20.10
2018-04-25T08:59:40.238Z,20.00
2018-04-25T09:02:06.634Z,22.50
2018-04-25T09:04:33.696Z,21.20
2018-04-25T09:06:59.956Z,21.30
2018-04-25T09:09:26.246Z,20.40
2018-04-25T09:11:52.521Z,20.30
2018-04-25T09:14:18.801Z,20.50
2018-04-25T09:16:45.073Z,19.90
2018-04-25T09:19:11.349Z,19.30
2018-04-25T09:21:37.622Z,18.80
2018-04-25T09:24:04.790Z,18.70
2018-04-25T09:26:31.068Z,20.20
2018-04-25T09:28:58.086Z,23.10
2018-04-25T09:31:24.411Z,23.10
2018-04-25T09:33:50.697Z,24.40
2018-04-25T09:36:16.998Z,26.10
2018-04-25T09:38:43.249Z,26.10
2018-04-25T09:41:10.265Z,24.20
2018-04-25T09:43:36.526Z,24.10
2018-04-25T09:46:03.550Z,24.30
2018-04-25T09:48:30.188Z,23.90
2018-04-25T09:50:56.482Z,24.50
2018-04-25T09:53:22.761Z,23.80
2018-04-25T09:55:49.771Z,22.50
2018-04-25T09:58:16.058Z,22.60
2018-04-25T10:00:48.416Z,22.50
2018-04-25T10:03:21.587Z,22.40
2018-04-25T10:05:47.873Z,22.20
2018-04-25T10:08:14.167Z,23.10
2018-04-25T10:10:41.242Z,21.90
2018-04-25T10:13:07.828Z,22.10
2018-04-25T10:15:34.094Z,20.90
2018-04-25T10:18:00.373Z,19.90
2018-04-25T10:20:26.638Z,19.70
2018-04-25T10:22:53.658Z,20.00
2018-04-25T10:25:19.933Z,19.90
2018-04-25T10:27:46.294Z,20.40
2018-04-25T10:30:12.550Z,20.20
2018-04-25T10:32:38.807Z,19.80
2018-04-25T10:35:05.108Z,20.10
2018-04-25T10:37:31.395Z,19.70
2018-04-25T10:39:57.666Z,19.80
2018-04-25T10:42:23.926Z,19.40
2018-04-25T10:44:50.974Z,19.70
2018-04-25T10:47:17.993Z,21.30
2018-04-25T10:49:44.240Z,20.90
2018-04-25T10:52:10.518Z,21.30
2018-04-25T10:54:37.272Z,20.50
2018-04-25T10:57:03.716Z,19.80
2018-04-25T10:59:29.983Z,19.30
2018-04-25T11:01:57.034Z,18.70
2018-04-25T11:04:24.063Z,18.80
2018-04-25T11:06:50.361Z,18.70
2018-04-25T11:09:16.625Z,18.70
2018-04-25T11:11:42.882Z,18.70
2018-04-25T11:14:09.172Z,19.50
2018-04-25T11:16:35.422Z,20.60
2018-04-25T11:19:02.456Z,22.00
2018-04-25T11:21:28.725Z,21.90
2018-04-25T11:23:55.005Z,22.30
2018-04-25T11:26:21.337Z,22.30
2018-04-25T11:28:47.598Z,22.50
2018-04-25T11:31:14.676Z,23.50
2018-04-25T11:33:40.948Z,23.30
2018-04-25T11:36:07.193Z,23.00
2018-04-25T11:38:34.240Z,23.90
2018-04-25T11:41:00.485Z,23.90
2018-04-25T11:43:27.694Z,23.40
2018-04-25T11:45:53.998Z,23.30
2018-04-25T11:48:20.262Z,22.80
2018-04-25T11:50:46.574Z,22.20
2018-04-25T11:53:12.993Z,22.50
2018-04-25T11:55:39.277Z,22.20
2018-04-25T11:58:05.518Z,22.00
2018-04-25T12:00:31.813Z,21.00
2018-04-25T12:02:58.103Z,20.50
2018-04-25T12:05:24.405Z,19.70
2018-04-25T12:07:50.725Z,19.40
2018-04-25T12:10:16.989Z,19.30
2018-04-25T12:12:43.297Z,18.90
2018-04-25T12:15:09.575Z,18.70
2018-04-25T12:17:35.958Z,19.60
2018-04-25T12:20:03.079Z,20.00
2018-04-25T12:22:29.359Z,20.40
2018-04-25T12:24:55.637Z,20.30
2018-04-25T12:27:21.899Z,20.10
2018-04-25T12:29:48.190Z,19.70
2018-04-25T12:32:14.628Z,19.00
2018-04-25T12:34:40.886Z,18.60
2018-04-25T12:37:07.923Z,18.80
2018-04-25T12:39:34.949Z,19.20
2018-04-25T12:42:01.328Z,19.00
2018-04-25T12:44:27.644Z,19.10
2018-04-25T12:46:54.711Z,18.60
2018-04-25T12:49:20.985Z,19.00
2018-04-25T12:51:47.270Z,18.80
2018-04-25T12:54:13.568Z,18.90
2018-04-25T12:56:39.835Z,19.20
2018-04-25T12:59:06.107Z,19.50
2018-04-25T13:01:32.371Z,20.00
2018-04-25T13:03:58.711Z,20.10
2018-04-25T13:06:25.745Z,20.10
2018-04-25T13:08:52.857Z,20.00
2018-04-25T13:11:19.825Z,19.70
2018-04-25T13:13:46.103Z,20.00
2018-04-25T13:16:12.383Z,20.50
2018-04-25T13:18:38.649Z,20.90
2018-04-25T13:21:04.958Z,21.40
2018-04-25T13:23:31.999Z,21.20
2018-04-25T13:25:58.296Z,21.30
2018-04-25T13:28:24.566Z,20.30
2018-04-25T13:30:51.636Z,19.20
2018-04-25T13:33:17.903Z,19.80
2018-04-25T13:35:44.942Z,20.40
2018-04-25T13:38:11.262Z,20.90
2018-04-25T13:40:37.729Z,21.10
2018-04-25T13:43:03.985Z,22.00
2018-04-25T13:45:31.043Z,21.70
2018-04-25T13:47:58.071Z,21.60
2018-04-25T13:50:24.390Z,21.10
2018-04-25T13:52:50.649Z,20.90
2018-04-25T13:55:17.677Z,20.10
2018-04-25T13:57:43.982Z,20.00
2018-04-25T14:00:10.249Z,19.90
2018-04-25T14:02:37.297Z,19.00
2018-04-25T14:05:04.336Z,18.70
2018-04-25T14:07:30.585Z,18.70
2018-04-25T14:09:56.903Z,18.80
2018-04-25T14:12:23.197Z,17.90
2018-04-25T14:14:49.493Z,18.10
2018-04-25T14:17:15.783Z,18.20
2018-04-25T14:19:42.047Z,18.10
2018-04-25T14:22:08.346Z,17.90
2018-04-25T14:24:35.476Z,18.00
2018-04-25T14:27:01.737Z,18.20
2018-04-25T14:29:28.749Z,19.80
2018-04-25T14:31:55.061Z,19.40
2018-04-25T14:34:21.371Z,20.10
2018-04-25T14:36:47.633Z,21.20
2018-04-25T14:39:13.898Z,21.80
2018-04-25T14:41:40.210Z,22.40
2018-04-25T14:44:06.499Z,23.50
2018-04-25T14:46:32.775Z,24.20
2018-04-25T14:48:59.028Z,23.70
2018-04-25T14:51:26.049Z,22.40
2018-04-25T14:53:52.303Z,22.30
2018-04-25T14:56:19.354Z,21.70
2018-04-25T14:58:45.715Z,21.90
2018-04-25T15:01:12.027Z,21.50
2018-04-25T15:03:38.350Z,21.60
2018-04-25T15:06:05.377Z,20.20
2018-04-25T15:08:31.662Z,20.30
2018-04-25T15:10:57.932Z,20.20
2018-04-25T15:13:24.201Z,20.20
2018-04-25T15:15:50.491Z,19.90
2018-04-25T15:18:16.803Z,19.60
2018-04-25T15:20:43.129Z,18.70
2018-04-25T15:23:09.395Z,19.20
2018-04-25T15:25:36.424Z,20.90
2018-04-25T15:28:02.762Z,20.70
2018-04-25T15:30:29.012Z,20.20
2018-04-25T15:32:56.114Z,19.20
2018-04-25T15:35:22.528Z,19.40
2018-04-25T15:37:48.893Z,19.20
2018-04-25T15:40:15.869Z,18.80
2018-04-25T15:42:42.905Z,18.80
2018-04-25T15:45:09.990Z,18.80
2018-04-25T15:47:36.286Z,18.90
2018-04-25T15:50:03.314Z,19.90
2018-04-25T15:52:29.598Z,20.30
2018-04-25T15:54:55.908Z,20.70
2018-04-25T15:57:22.943Z,20.80
2018-04-25T15:59:49.968Z,21.30
2018-04-25T16:02:16.255Z,21.10
2018-04-25T16:04:42.569Z,21.20
2018-04-25T16:07:08.917Z,21.10
2018-04-25T16:09:35.218Z,21.60
2018-04-25T16:12:02.258Z,21.80
2018-04-25T16:14:28.515Z,21.60
2018-04-25T16:16:54.817Z,21.80
2018-04-25T16:19:21.810Z,21.70
2018-04-25T16:21:48.108Z,21.70
2018-04-25T16:24:15.102Z,21.10
2018-04-25T16:26:41.382Z,20.90
2018-04-25T16:29:08.450Z,20.40
2018-04-25T16:31:34.743Z,20.20
2018-04-25T16:34:01.073Z,20.50
2018-04-25T16:36:28.077Z,20.80
2018-04-25T16:38:54.394Z,20.40
2018-04-25T16:41:20.681Z,19.70
2018-04-25T16:43:47.715Z,20.30
2018-04-25T16:46:13.987Z,20.00
2018-04-25T16:48:41.022Z,19.60
2018-04-25T16:51:07.998Z,19.40
2018-04-25T16:53:34.265Z,19.40
2018-04-25T16:56:00.557Z,19.20
2018-04-25T16:58:26.840Z,18.70
2018-04-25T17:00:53.095Z,18.70
2018-04-25T17:03:20.129Z,18.20
2018-04-25T17:05:47.208Z,17.90
2018-04-25T17:08:13.510Z,18.10
2018-04-25T17:10:39.789Z,18.00
2018-04-25T17:13:06.084Z,17.60
2018-04-25T17:15:32.414Z,18.00
2018-04-25T17:17:59.413Z,17.90
2018-04-25T17:20:25.734Z,18.00
2018-04-25T17:22:52.088Z,17.80
2018-04-25T17:25:18.365Z,17.90
2018-04-25T17:27:44.670Z,17.80
2018-04-25T17:30:11.698Z,17.60
2018-04-25T17:32:38.104Z,17.60
2018-04-25T17:35:04.379Z,17.80
2018-04-25T17:37:31.407Z,17.20
2018-04-25T17:39:57.671Z,17.20
2018-04-25T17:42:23.953Z,16.90
2018-04-25T17:44:50.237Z,17.10
2018-04-25T17:47:16.508Z,17.10
2018-04-25T17:49:42.800Z,17.00
2018-04-25T17:52:09.116Z,17.00
2018-04-25T17:54:36.126Z,17.00
2018-04-25T17:57:02.450Z,17.00
2018-04-25T17:59:28.704Z,16.60
2018-04-25T18:01:54.973Z,16.40
2018-04-25T18:04:21.242Z,16.50
2018-04-25T18:06:47.508Z,16.60
2018-04-25T18:09:13.818Z,16.60
2018-04-25T18:11:40.341Z,16.00
2018-04-25T18:14:06.666Z,16.30
2018-04-25T18:16:32.975Z,16.10
2018-04-25T18:18:59.222Z,16.10
2018-04-25T18:21:25.543Z,16.10
2018-04-25T18:23:51.786Z,15.90
2018-04-25T18:26:18.047Z,15.90
2018-04-25T18:28:45.066Z,15.90
2018-04-25T18:31:11.338Z,16.00
2018-04-25T18:33:37.617Z,15.90
2018-04-25T18:36:03.951Z,15.90
2018-04-25T18:38:30.245Z,15.80
2018-04-25T18:40:56.549Z,15.60
2018-04-25T18:43:23.541Z,15.30
2018-04-25T18:45:49.826Z,15.40
2018-04-25T18:48:16.827Z,15.30
2018-04-25T18:50:43.088Z,15.10
2018-04-25T18:53:09.373Z,15.50
2018-04-25T18:55:35.634Z,15.00
2018-04-25T18:58:02.320Z,14.80
2018-04-25T19:00:28.621Z,15.30
2018-04-25T19:02:54.965Z,14.80
2018-04-25T19:05:21.337Z,14.70
2018-04-25T19:07:47.613Z,14.60
2018-04-25T19:10:13.927Z,14.70
2018-04-25T19:12:40.213Z,14.60
2018-04-25T19:15:06.500Z,14.70
2018-04-25T19:17:32.842Z,14.70
2018-04-25T19:19:59.294Z,14.90
2018-04-25T19:22:25.601Z,14.70
2018-04-25T19:24:51.918Z,14.80
2018-04-25T19:27:18.138Z,14.60
2018-04-25T19:29:44.426Z,14.50
2018-04-25T19:32:10.702Z,14.80
2018-04-25T19:34:37.027Z,14.90
2018-04-25T19:37:03.314Z,15.10
2018-04-25T19:39:29.562Z,14.60
2018-04-25T19:41:55.849Z,14.60
2018-04-25T19:44:22.149Z,14.80
2018-04-25T19:46:48.435Z,14.70
2018-04-25T19:49:14.694Z,14.30
2018-04-25T19:51:40.948Z,14.70
2018-04-25T19:54:07.207Z,14.10
2018-04-25T19:56:34.210Z,14.10
2018-04-25T19:59:00.482Z,14.20
2018-04-25T20:01:27.479Z,14.10
2018-04-25T20:03:53.766Z,14.10
2018-04-25T20:06:20.801Z,14.20
2018-04-25T20:08:47.791Z,14.10
2018-04-25T20:11:14.128Z,14.00
2018-04-25T20:13:40.420Z,14.20
2018-04-25T20:16:06.680Z,14.00
2018-04-25T20:18:33.005Z,14.00
2018-04-25T20:20:59.266Z,14.00
2018-04-25T20:23:25.542Z,14.20
2018-04-25T20:25:51.802Z,13.80
2018-04-25T20:28:18.071Z,13.60
2018-04-25T20:30:45.267Z,13.70
2018-04-25T20:33:11.576Z,13.70
2018-04-25T20:35:37.895Z,13.60
2018-04-25T20:38:04.914Z,13.60
2018-04-25T20:40:31.189Z,13.60
2018-04-25T20:42:57.540Z,14.00
2018-04-25T20:45:23.875Z,13.60
2018-04-25T20:47:50.178Z,13.80
2018-04-25T20:50:16.445Z,13.50
2018-04-25T20:52:42.708Z,13.50
2018-04-25T20:55:08.990Z,13.70
2018-04-25T20:57:35.262Z,13.10
2018-04-25T21:00:01.566Z,13.40
2018-04-25T21:02:28.034Z,13.50
2018-04-25T21:04:54.274Z,13.40
2018-04-25T21:07:21.399Z,13.20
2018-04-25T21:09:47.667Z,13.40
2018-04-25T21:12:13.970Z,13.00
2018-04-25T21:14:40.219Z,13.00
2018-04-25T21:17:07.227Z,13.20
2018-04-25T21:19:33.514Z,13.30
2018-04-25T21:21:59.803Z,13.20
2018-04-25T21:24:26.086Z,13.30
2018-04-25T21:26:52.418Z,13.10
2018-04-25T21:29:18.681Z,13.10
2018-04-25T21:31:44.942Z,13.20
2018-04-25T21:34:12.099Z,12.80
2018-04-25T21:36:39.143Z,12.70
2018-04-25T21:39:05.554Z,12.70
2018-04-25T21:41:32.611Z,12.80
2018-04-25T21:43:58.901Z,12.80
2018-04-25T21:46:25.318Z,12.70
2018-04-25T21:48:51.574Z,12.80
2018-04-25T21:51:18.079Z,12.70
2018-04-25T21:53:44.343Z,12.50
2018-04-25T21:56:10.615Z,12.60
2018-04-25T21:58:36.914Z,12.80
2018-04-25T22:01:03.199Z,12.70
2018-04-25T22:03:29.485Z,12.40
2018-04-25T22:05:56.753Z,12.70
2018-04-25T22:08:23.769Z,12.30
2018-04-25T22:10:50.067Z,12.40
2018-04-25T22:13:16.576Z,12.30
2018-04-25T22:15:43.580Z,12.30
2018-04-25T22:18:09.855Z,12.20
2018-04-25T22:20:36.897Z,12.10
2018-04-25T22:23:03.975Z,12.30
2018-04-25T22:25:30.261Z,12.30
2018-04-25T22:27:56.510Z,12.10
2018-04-25T22:30:23.521Z,12.00
2018-04-25T22:32:49.788Z,12.30
2018-04-25T22:35:16.063Z,12.30
2018-04-25T22:37:42.370Z,12.00
2018-04-25T22:40:08.679Z,11.80
2018-04-25T22:42:34.958Z,11.70
2018-04-25T22:45:01.226Z,12.00
2018-04-25T22:47:28.275Z,11.80
2018-04-25T22:49:55.285Z,11.90
2018-04-25T22:52:21.555Z,11.90
2018-04-25T22:54:47.881Z,11.90
2018-04-25T22:57:14.917Z,11.60
2018-04-25T22:59:41.239Z,11.70
2018-04-25T23:02:07.590Z,11.80
2018-04-25T23:04:34.586Z,11.60
2018-04-25T23:07:00.865Z,11.70
2018-04-25T23:09:27.862Z,11.90
2018-04-25T23:11:54.142Z,11.70
2018-04-25T23:14:21.151Z,11.60
2018-04-25T23:16:47.630Z,11.60
2018-04-25T23:19:14.637Z,11.30
2018-04-25T23:21:40.886Z,11.40
2018-04-25T23:24:07.202Z,11.30
2018-04-25T23:26:33.447Z,11.20
2018-04-25T23:28:59.738Z,11.30
2018-04-25T23:31:26.009Z,11.20
2018-04-25T23:33:52.278Z,11.20
2018-04-25T23:36:18.550Z,11.20
2018-04-25T23:38:44.795Z,11.40
2018-04-25T23:41:11.062Z,11.30
2018-04-25T23:43:37.315Z,10.80
2018-04-25T23:46:03.583Z,10.90
2018-04-25T23:48:29.851Z,10.80
2018-04-25T23:50:56.089Z,10.80
2018-04-25T23:53:22.401Z,10.80
2018-04-25T23:55:49.515Z,10.80
2018-04-25T23:58:16.677Z,10.80
